sensor_id;sensor_type;location;lat;lon;timestamp;P1;durP1;ratioP1;P2;durP2;ratioP2
15699;SDS011;7950;42.744;23.174;2024-02-23T00:01:58;15.57;;;11.73;;
15699;SDS011;7950;42.744;23.174;2024-02-23T00:04:28;15.67;;;11.53;;
15699;SDS011;7950;42.744;23.174;2024-02-23T00:06:56;19.07;;;12.03;;
15699;SDS011;7950;42.744;23.174;2024-02-23T00:09:25;14.67;;;10.90;;
15699;SDS011;7950;42.744;23.174;2024-02-23T00:11:53;15.20;;;11.47;;
15699;SDS011;7950;42.744;23.174;2024-02-23T00:14:22;16.13;;;12.63;;
15699;SDS011;7950;42.744;23.174;2024-02-23T00:16:50;16.57;;;12.00;;
15699;SDS011;7950;42.744;23.174;2024-02-23T00:19:19;18.10;;;11.13;;
15699;SDS011;7950;42.744;23.174;2024-02-23T00:21:50;16.37;;;11.03;;
15699;SDS011;7950;42.744;23.174;2024-02-23T00:24:19;17.60;;;11.63;;
15699;SDS011;7950;42.744;23.174;2024-02-23T00:26:48;14.70;;;11.67;;
15699;SDS011;7950;42.744;23.174;2024-02-23T00:29:17;15.53;;;11.73;;
15699;SDS011;7950;42.744;23.174;2024-02-23T00:31:46;15.37;;;11.87;;
15699;SDS011;7950;42.744;23.174;2024-02-23T00:34:15;23.10;;;12.43;;
15699;SDS011;7950;42.744;23.174;2024-02-23T00:36:44;17.37;;;12.00;;
15699;SDS011;7950;42.744;23.174;2024-02-23T00:39:14;17.13;;;12.20;;
15699;SDS011;7950;42.744;23.174;2024-02-23T00:41:42;16.40;;;12.27;;
15699;SDS011;7950;42.744;23.174;2024-02-23T00:44:11;14.07;;;11.33;;
15699;SDS011;7950;42.744;23.174;2024-02-23T00:46:40;17.93;;;12.37;;
15699;SDS011;7950;42.744;23.174;2024-02-23T00:49:09;15.77;;;11.90;;
15699;SDS011;7950;42.744;23.174;2024-02-23T00:51:37;16.20;;;11.67;;
15699;SDS011;7950;42.744;23.174;2024-02-23T00:54:06;13.80;;;10.97;;
15699;SDS011;7950;42.744;23.174;2024-02-23T00:56:36;15.83;;;11.50;;
15699;SDS011;7950;42.744;23.174;2024-02-23T00:59:16;14.30;;;11.17;;
15699;SDS011;7950;42.744;23.174;2024-02-23T01:01:45;14.07;;;11.03;;
15699;SDS011;7950;42.744;23.174;2024-02-23T01:04:14;16.23;;;11.30;;
15699;SDS011;7950;42.744;23.174;2024-02-23T01:06:42;15.10;;;10.73;;
15699;SDS011;7950;42.744;23.174;2024-02-23T01:09:11;14.87;;;10.93;;
15699;SDS011;7950;42.744;23.174;2024-02-23T01:11:41;14.33;;;9.80;;
15699;SDS011;7950;42.744;23.174;2024-02-23T01:14:10;13.57;;;10.37;;
15699;SDS011;7950;42.744;23.174;2024-02-23T01:16:38;12.80;;;10.47;;
15699;SDS011;7950;42.744;23.174;2024-02-23T01:19:07;16.53;;;10.97;;
15699;SDS011;7950;42.744;23.174;2024-02-23T01:21:35;15.50;;;10.97;;
15699;SDS011;7950;42.744;23.174;2024-02-23T01:24:04;15.63;;;10.90;;
15699;SDS011;7950;42.744;23.174;2024-02-23T01:26:33;13.03;;;10.50;;
15699;SDS011;7950;42.744;23.174;2024-02-23T01:29:05;15.73;;;10.77;;
15699;SDS011;7950;42.744;23.174;2024-02-23T01:31:33;15.67;;;11.07;;
15699;SDS011;7950;42.744;23.174;2024-02-23T01:34:02;14.27;;;10.93;;
15699;SDS011;7950;42.744;23.174;2024-02-23T01:36:30;16.17;;;11.13;;
15699;SDS011;7950;42.744;23.174;2024-02-23T01:38:59;13.73;;;10.30;;
15699;SDS011;7950;42.744;23.174;2024-02-23T01:41:27;15.10;;;11.63;;
15699;SDS011;7950;42.744;23.174;2024-02-23T01:43:56;15.83;;;11.37;;
15699;SDS011;7950;42.744;23.174;2024-02-23T01:46:26;16.20;;;10.77;;
15699;SDS011;7950;42.744;23.174;2024-02-23T01:48:55;15.70;;;11.37;;
15699;SDS011;7950;42.744;23.174;2024-02-23T01:51:24;14.43;;;10.33;;
15699;SDS011;7950;42.744;23.174;2024-02-23T01:53:53;14.03;;;9.83;;
15699;SDS011;7950;42.744;23.174;2024-02-23T01:56:22;15.60;;;10.60;;
15699;SDS011;7950;42.744;23.174;2024-02-23T01:58:51;13.50;;;9.57;;
15699;SDS011;7950;42.744;23.174;2024-02-23T02:01:20;13.50;;;9.73;;
15699;SDS011;7950;42.744;23.174;2024-02-23T02:03:50;12.80;;;9.07;;
15699;SDS011;7950;42.744;23.174;2024-02-23T02:06:19;13.80;;;9.37;;
15699;SDS011;7950;42.744;23.174;2024-02-23T02:08:47;15.23;;;9.07;;
15699;SDS011;7950;42.744;23.174;2024-02-23T02:11:16;13.40;;;9.87;;
15699;SDS011;7950;42.744;23.174;2024-02-23T02:13:45;16.73;;;9.40;;
15699;SDS011;7950;42.744;23.174;2024-02-23T02:16:14;16.37;;;9.33;;
15699;SDS011;7950;42.744;23.174;2024-02-23T02:18:43;12.90;;;9.43;;
15699;SDS011;7950;42.744;23.174;2024-02-23T02:21:13;11.53;;;8.40;;
15699;SDS011;7950;42.744;23.174;2024-02-23T02:23:42;11.97;;;8.63;;
15699;SDS011;7950;42.744;23.174;2024-02-23T02:26:10;14.07;;;9.53;;
15699;SDS011;7950;42.744;23.174;2024-02-23T02:28:39;11.90;;;9.00;;
15699;SDS011;7950;42.744;23.174;2024-02-23T02:31:08;10.67;;;9.10;;
15699;SDS011;7950;42.744;23.174;2024-02-23T02:33:36;11.50;;;8.57;;
15699;SDS011;7950;42.744;23.174;2024-02-23T02:36:05;11.47;;;9.37;;
15699;SDS011;7950;42.744;23.174;2024-02-23T02:38:35;11.47;;;8.67;;
15699;SDS011;7950;42.744;23.174;2024-02-23T02:41:03;13.97;;;9.00;;
15699;SDS011;7950;42.744;23.174;2024-02-23T02:43:32;12.23;;;8.53;;
15699;SDS011;7950;42.744;23.174;2024-02-23T02:46:00;11.77;;;9.33;;
15699;SDS011;7950;42.744;23.174;2024-02-23T02:48:29;11.90;;;9.00;;
15699;SDS011;7950;42.744;23.174;2024-02-23T02:50:58;12.73;;;9.13;;
15699;SDS011;7950;42.744;23.174;2024-02-23T02:53:26;12.67;;;8.23;;
15699;SDS011;7950;42.744;23.174;2024-02-23T02:55:56;10.50;;;8.07;;
15699;SDS011;7950;42.744;23.174;2024-02-23T02:58:25;11.73;;;9.27;;
15699;SDS011;7950;42.744;23.174;2024-02-23T03:00:53;12.67;;;9.30;;
15699;SDS011;7950;42.744;23.174;2024-02-23T03:03:22;12.03;;;8.53;;
15699;SDS011;7950;42.744;23.174;2024-02-23T03:05:50;12.47;;;8.47;;
15699;SDS011;7950;42.744;23.174;2024-02-23T03:08:19;11.60;;;8.77;;
15699;SDS011;7950;42.744;23.174;2024-02-23T03:10:47;12.40;;;8.70;;
15699;SDS011;7950;42.744;23.174;2024-02-23T03:13:17;12.30;;;9.00;;
15699;SDS011;7950;42.744;23.174;2024-02-23T03:15:46;11.47;;;8.73;;
15699;SDS011;7950;42.744;23.174;2024-02-23T03:18:14;9.30;;;7.87;;
15699;SDS011;7950;42.744;23.174;2024-02-23T03:20:43;12.23;;;8.37;;
15699;SDS011;7950;42.744;23.174;2024-02-23T03:23:12;10.43;;;8.67;;
15699;SDS011;7950;42.744;23.174;2024-02-23T03:25:40;13.43;;;8.87;;
15699;SDS011;7950;42.744;23.174;2024-02-23T03:28:09;11.00;;;8.43;;
15699;SDS011;7950;42.744;23.174;2024-02-23T03:30:39;10.93;;;8.30;;
15699;SDS011;7950;42.744;23.174;2024-02-23T03:33:07;10.43;;;8.60;;
15699;SDS011;7950;42.744;23.174;2024-02-23T03:35:36;11.67;;;8.70;;
15699;SDS011;7950;42.744;23.174;2024-02-23T03:38:05;10.57;;;8.47;;
15699;SDS011;7950;42.744;23.174;2024-02-23T03:40:33;11.00;;;8.13;;
15699;SDS011;7950;42.744;23.174;2024-02-23T03:43:02;14.07;;;8.40;;
15699;SDS011;7950;42.744;23.174;2024-02-23T03:45:32;10.47;;;8.30;;
15699;SDS011;7950;42.744;23.174;2024-02-23T03:48:02;14.10;;;9.03;;
15699;SDS011;7950;42.744;23.174;2024-02-23T03:50:32;11.47;;;8.27;;
15699;SDS011;7950;42.744;23.174;2024-02-23T03:53:00;10.40;;;8.10;;
15699;SDS011;7950;42.744;23.174;2024-02-23T03:55:29;11.83;;;8.27;;
15699;SDS011;7950;42.744;23.174;2024-02-23T03:57:59;9.83;;;7.87;;
15699;SDS011;7950;42.744;23.174;2024-02-23T04:00:28;9.63;;;7.87;;
15699;SDS011;7950;42.744;23.174;2024-02-23T04:02:56;12.17;;;8.57;;
15699;SDS011;7950;42.744;23.174;2024-02-23T04:05:26;11.90;;;8.67;;
15699;SDS011;7950;42.744;23.174;2024-02-23T04:07:55;10.70;;;8.03;;
15699;SDS011;7950;42.744;23.174;2024-02-23T04:10:23;10.53;;;7.77;;
15699;SDS011;7950;42.744;23.174;2024-02-23T04:12:52;10.07;;;7.40;;
15699;SDS011;7950;42.744;23.174;2024-02-23T04:15:20;12.93;;;8.47;;
15699;SDS011;7950;42.744;23.174;2024-02-23T04:17:49;14.37;;;8.17;;
15699;SDS011;7950;42.744;23.174;2024-02-23T04:20:17;10.00;;;7.53;;
15699;SDS011;7950;42.744;23.174;2024-02-23T04:22:47;12.83;;;8.00;;
15699;SDS011;7950;42.744;23.174;2024-02-23T04:25:16;12.63;;;8.50;;
15699;SDS011;7950;42.744;23.174;2024-02-23T04:27:44;12.53;;;8.13;;
15699;SDS011;7950;42.744;23.174;2024-02-23T04:30:13;16.63;;;8.67;;
15699;SDS011;7950;42.744;23.174;2024-02-23T04:32:42;12.57;;;7.60;;
15699;SDS011;7950;42.744;23.174;2024-02-23T04:35:11;13.77;;;9.00;;
15699;SDS011;7950;42.744;23.174;2024-02-23T04:37:42;12.33;;;8.43;;
15699;SDS011;7950;42.744;23.174;2024-02-23T04:40:13;11.60;;;8.37;;
15699;SDS011;7950;42.744;23.174;2024-02-23T04:42:43;12.97;;;8.50;;
15699;SDS011;7950;42.744;23.174;2024-02-23T04:45:14;9.73;;;8.07;;
15699;SDS011;7950;42.744;23.174;2024-02-23T04:47:42;11.90;;;8.20;;
15699;SDS011;7950;42.744;23.174;2024-02-23T04:50:13;11.27;;;8.50;;
15699;SDS011;7950;42.744;23.174;2024-02-23T04:52:42;10.93;;;8.33;;
15699;SDS011;7950;42.744;23.174;2024-02-23T04:55:10;10.93;;;8.50;;
15699;SDS011;7950;42.744;23.174;2024-02-23T04:57:41;14.10;;;9.43;;
15699;SDS011;7950;42.744;23.174;2024-02-23T05:00:10;14.03;;;10.17;;
15699;SDS011;7950;42.744;23.174;2024-02-23T05:02:39;13.57;;;9.30;;
15699;SDS011;7950;42.744;23.174;2024-02-23T05:05:08;11.53;;;8.07;;
15699;SDS011;7950;42.744;23.174;2024-02-23T05:07:36;13.17;;;8.23;;
15699;SDS011;7950;42.744;23.174;2024-02-23T05:10:06;12.90;;;8.87;;
15699;SDS011;7950;42.744;23.174;2024-02-23T05:12:36;12.00;;;8.47;;
15699;SDS011;7950;42.744;23.174;2024-02-23T05:15:05;13.50;;;9.23;;
15699;SDS011;7950;42.744;23.174;2024-02-23T05:17:35;12.30;;;9.00;;
15699;SDS011;7950;42.744;23.174;2024-02-23T05:20:04;14.37;;;8.67;;
15699;SDS011;7950;42.744;23.174;2024-02-23T05:22:34;14.23;;;8.50;;
15699;SDS011;7950;42.744;23.174;2024-02-23T05:25:03;15.00;;;8.80;;
15699;SDS011;7950;42.744;23.174;2024-02-23T05:27:33;12.80;;;9.10;;
15699;SDS011;7950;42.744;23.174;2024-02-23T05:30:03;12.33;;;9.13;;
15699;SDS011;7950;42.744;23.174;2024-02-23T05:32:34;11.60;;;8.27;;
15699;SDS011;7950;42.744;23.174;2024-02-23T05:35:03;9.97;;;8.17;;
15699;SDS011;7950;42.744;23.174;2024-02-23T05:37:34;10.37;;;8.17;;
15699;SDS011;7950;42.744;23.174;2024-02-23T05:40:03;12.17;;;7.97;;
15699;SDS011;7950;42.744;23.174;2024-02-23T05:42:36;10.00;;;8.13;;
15699;SDS011;7950;42.744;23.174;2024-02-23T05:45:08;12.23;;;8.17;;
15699;SDS011;7950;42.744;23.174;2024-02-23T05:47:37;11.97;;;9.07;;
15699;SDS011;7950;42.744;23.174;2024-02-23T05:50:12;10.53;;;8.10;;
15699;SDS011;7950;42.744;23.174;2024-02-23T05:52:41;9.93;;;7.87;;
15699;SDS011;7950;42.744;23.174;2024-02-23T05:55:09;12.53;;;8.00;;
15699;SDS011;7950;42.744;23.174;2024-02-23T05:57:38;10.87;;;8.30;;
15699;SDS011;7950;42.744;23.174;2024-02-23T06:00:09;10.87;;;8.27;;
15699;SDS011;7950;42.744;23.174;2024-02-23T06:02:42;10.27;;;7.80;;
15699;SDS011;7950;42.744;23.174;2024-02-23T06:05:11;17.93;;;13.00;;
15699;SDS011;7950;42.744;23.174;2024-02-23T06:07:40;11.33;;;7.97;;
15699;SDS011;7950;42.744;23.174;2024-02-23T06:10:09;9.60;;;7.83;;
15699;SDS011;7950;42.744;23.174;2024-02-23T06:12:38;9.60;;;7.50;;
15699;SDS011;7950;42.744;23.174;2024-02-23T06:15:07;11.10;;;8.17;;
15699;SDS011;7950;42.744;23.174;2024-02-23T06:17:37;12.37;;;8.13;;
15699;SDS011;7950;42.744;23.174;2024-02-23T06:20:07;12.07;;;7.80;;
15699;SDS011;7950;42.744;23.174;2024-02-23T06:22:37;9.33;;;7.43;;
15699;SDS011;7950;42.744;23.174;2024-02-23T06:25:06;10.97;;;7.93;;
15699;SDS011;7950;42.744;23.174;2024-02-23T06:27:35;11.83;;;7.97;;
15699;SDS011;7950;42.744;23.174;2024-02-23T06:30:04;10.97;;;7.67;;
15699;SDS011;7950;42.744;23.174;2024-02-23T06:32:36;10.67;;;7.93;;
15699;SDS011;7950;42.744;23.174;2024-02-23T06:35:05;12.70;;;8.13;;
15699;SDS011;7950;42.744;23.174;2024-02-23T06:37:35;11.80;;;8.27;;
15699;SDS011;7950;42.744;23.174;2024-02-23T06:40:04;11.47;;;8.07;;
15699;SDS011;7950;42.744;23.174;2024-02-23T06:42:34;12.07;;;8.67;;
15699;SDS011;7950;42.744;23.174;2024-02-23T06:45:04;15.43;;;10.03;;
15699;SDS011;7950;42.744;23.174;2024-02-23T06:47:35;14.73;;;12.10;;
15699;SDS011;7950;42.744;23.174;2024-02-23T06:50:06;14.83;;;10.37;;
15699;SDS011;7950;42.744;23.174;2024-02-23T06:52:35;11.37;;;8.73;;
15699;SDS011;7950;42.744;23.174;2024-02-23T06:55:05;15.20;;;9.30;;
15699;SDS011;7950;42.744;23.174;2024-02-23T06:57:35;19.13;;;12.83;;
15699;SDS011;7950;42.744;23.174;2024-02-23T07:00:05;11.33;;;8.00;;
15699;SDS011;7950;42.744;23.174;2024-02-23T07:02:37;17.80;;;12.43;;
15699;SDS011;7950;42.744;23.174;2024-02-23T07:05:06;13.40;;;8.83;;
15699;SDS011;7950;42.744;23.174;2024-02-23T07:07:35;9.93;;;8.07;;
15699;SDS011;7950;42.744;23.174;2024-02-23T07:10:05;13.40;;;8.67;;
15699;SDS011;7950;42.744;23.174;2024-02-23T07:12:35;18.80;;;12.67;;
15699;SDS011;7950;42.744;23.174;2024-02-23T07:15:03;14.90;;;11.50;;
15699;SDS011;7950;42.744;23.174;2024-02-23T07:17:33;15.20;;;10.50;;
15699;SDS011;7950;42.744;23.174;2024-02-23T07:20:03;15.20;;;11.67;;
15699;SDS011;7950;42.744;23.174;2024-02-23T07:22:33;18.47;;;12.10;;
15699;SDS011;7950;42.744;23.174;2024-02-23T07:25:03;13.43;;;8.17;;
15699;SDS011;7950;42.744;23.174;2024-02-23T07:27:32;11.40;;;7.17;;
15699;SDS011;7950;42.744;23.174;2024-02-23T07:30:01;11.03;;;7.77;;
15699;SDS011;7950;42.744;23.174;2024-02-23T07:32:31;11.10;;;8.23;;
15699;SDS011;7950;42.744;23.174;2024-02-23T07:35:00;13.80;;;10.00;;
15699;SDS011;7950;42.744;23.174;2024-02-23T07:37:31;16.63;;;10.13;;
15699;SDS011;7950;42.744;23.174;2024-02-23T07:40:00;10.10;;;7.23;;
15699;SDS011;7950;42.744;23.174;2024-02-23T07:42:29;10.70;;;7.27;;
15699;SDS011;7950;42.744;23.174;2024-02-23T07:44:59;9.30;;;6.63;;
15699;SDS011;7950;42.744;23.174;2024-02-23T07:47:27;8.73;;;7.07;;
15699;SDS011;7950;42.744;23.174;2024-02-23T07:49:56;13.37;;;9.37;;
15699;SDS011;7950;42.744;23.174;2024-02-23T07:52:26;16.17;;;10.27;;
15699;SDS011;7950;42.744;23.174;2024-02-23T07:54:55;17.77;;;11.20;;
15699;SDS011;7950;42.744;23.174;2024-02-23T07:57:23;16.33;;;10.83;;
15699;SDS011;7950;42.744;23.174;2024-02-23T07:59:52;17.10;;;10.93;;
15699;SDS011;7950;42.744;23.174;2024-02-23T08:02:20;12.17;;;10.23;;
15699;SDS011;7950;42.744;23.174;2024-02-23T08:04:49;14.23;;;10.60;;
15699;SDS011;7950;42.744;23.174;2024-02-23T08:07:19;12.47;;;10.87;;
15699;SDS011;7950;42.744;23.174;2024-02-23T08:09:50;14.53;;;10.17;;
15699;SDS011;7950;42.744;23.174;2024-02-23T08:12:19;10.10;;;7.50;;
15699;SDS011;7950;42.744;23.174;2024-02-23T08:14:48;12.00;;;8.20;;
15699;SDS011;7950;42.744;23.174;2024-02-23T08:17:19;9.83;;;6.77;;
15699;SDS011;7950;42.744;23.174;2024-02-23T08:19:48;6.07;;;5.23;;
15699;SDS011;7950;42.744;23.174;2024-02-23T08:22:17;5.60;;;4.63;;
15699;SDS011;7950;42.744;23.174;2024-02-23T08:24:46;8.07;;;5.07;;
15699;SDS011;7950;42.744;23.174;2024-02-23T08:27:16;8.23;;;5.10;;
15699;SDS011;7950;42.744;23.174;2024-02-23T08:29:44;6.60;;;5.27;;
15699;SDS011;7950;42.744;23.174;2024-02-23T08:32:13;5.97;;;4.70;;
15699;SDS011;7950;42.744;23.174;2024-02-23T08:34:41;9.30;;;4.70;;
15699;SDS011;7950;42.744;23.174;2024-02-23T08:37:10;6.93;;;4.70;;
15699;SDS011;7950;42.744;23.174;2024-02-23T08:39:39;6.30;;;5.10;;
15699;SDS011;7950;42.744;23.174;2024-02-23T08:42:08;4.63;;;4.13;;
15699;SDS011;7950;42.744;23.174;2024-02-23T08:44:38;5.57;;;4.60;;
15699;SDS011;7950;42.744;23.174;2024-02-23T08:47:07;5.67;;;4.40;;
15699;SDS011;7950;42.744;23.174;2024-02-23T08:49:36;5.70;;;4.40;;
15699;SDS011;7950;42.744;23.174;2024-02-23T08:52:04;5.33;;;4.20;;
15699;SDS011;7950;42.744;23.174;2024-02-23T08:54:33;6.87;;;4.40;;
15699;SDS011;7950;42.744;23.174;2024-02-23T08:57:02;5.57;;;4.17;;
15699;SDS011;7950;42.744;23.174;2024-02-23T08:59:30;4.47;;;3.93;;
15699;SDS011;7950;42.744;23.174;2024-02-23T09:02:00;5.63;;;4.37;;
15699;SDS011;7950;42.744;23.174;2024-02-23T09:04:30;4.27;;;3.40;;
15699;SDS011;7950;42.744;23.174;2024-02-23T09:06:59;4.33;;;3.50;;
15699;SDS011;7950;42.744;23.174;2024-02-23T09:09:28;5.70;;;3.63;;
15699;SDS011;7950;42.744;23.174;2024-02-23T09:11:56;5.33;;;3.60;;
15699;SDS011;7950;42.744;23.174;2024-02-23T09:14:25;4.37;;;3.57;;
15699;SDS011;7950;42.744;23.174;2024-02-23T09:16:54;3.80;;;3.50;;
15699;SDS011;7950;42.744;23.174;2024-02-23T09:19:23;5.73;;;3.90;;
15699;SDS011;7950;42.744;23.174;2024-02-23T09:21:52;4.77;;;3.50;;
15699;SDS011;7950;42.744;23.174;2024-02-23T09:24:21;5.40;;;3.50;;
15699;SDS011;7950;42.744;23.174;2024-02-23T09:26:49;4.77;;;3.50;;
15699;SDS011;7950;42.744;23.174;2024-02-23T09:29:18;4.67;;;3.27;;
15699;SDS011;7950;42.744;23.174;2024-02-23T09:31:48;4.07;;;3.40;;
15699;SDS011;7950;42.744;23.174;2024-02-23T09:34:16;7.13;;;3.53;;
15699;SDS011;7950;42.744;23.174;2024-02-23T09:36:46;4.67;;;2.90;;
15699;SDS011;7950;42.744;23.174;2024-02-23T09:39:15;4.23;;;3.53;;
15699;SDS011;7950;42.744;23.174;2024-02-23T09:41:43;4.20;;;3.07;;
15699;SDS011;7950;42.744;23.174;2024-02-23T09:44:12;3.97;;;3.40;;
15699;SDS011;7950;42.744;23.174;2024-02-23T09:46:43;3.80;;;3.03;;
15699;SDS011;7950;42.744;23.174;2024-02-23T09:49:12;4.97;;;3.33;;
15699;SDS011;7950;42.744;23.174;2024-02-23T09:51:43;4.50;;;3.07;;
15699;SDS011;7950;42.744;23.174;2024-02-23T09:54:13;3.07;;;2.50;;
15699;SDS011;7950;42.744;23.174;2024-02-23T09:56:45;3.17;;;2.80;;
15699;SDS011;7950;42.744;23.174;2024-02-23T09:59:14;3.47;;;3.17;;
15699;SDS011;7950;42.744;23.174;2024-02-23T10:01:43;3.90;;;3.10;;
15699;SDS011;7950;42.744;23.174;2024-02-23T10:04:13;3.20;;;2.90;;
15699;SDS011;7950;42.744;23.174;2024-02-23T10:06:43;3.13;;;2.80;;
15699;SDS011;7950;42.744;23.174;2024-02-23T10:09:13;4.77;;;2.80;;
15699;SDS011;7950;42.744;23.174;2024-02-23T10:11:41;3.53;;;2.57;;
15699;SDS011;7950;42.744;23.174;2024-02-23T10:14:10;2.53;;;2.33;;
15699;SDS011;7950;42.744;23.174;2024-02-23T10:16:39;4.63;;;2.73;;
15699;SDS011;7950;42.744;23.174;2024-02-23T10:19:08;2.87;;;2.57;;
15699;SDS011;7950;42.744;23.174;2024-02-23T10:21:36;3.90;;;2.87;;
15699;SDS011;7950;42.744;23.174;2024-02-23T10:24:05;3.53;;;2.90;;
15699;SDS011;7950;42.744;23.174;2024-02-23T10:26:35;4.70;;;2.60;;
15699;SDS011;7950;42.744;23.174;2024-02-23T10:29:04;2.87;;;2.47;;
15699;SDS011;7950;42.744;23.174;2024-02-23T10:31:37;2.90;;;2.63;;
15699;SDS011;7950;42.744;23.174;2024-02-23T10:34:07;3.03;;;2.50;;
15699;SDS011;7950;42.744;23.174;2024-02-23T10:36:40;4.13;;;2.53;;
15699;SDS011;7950;42.744;23.174;2024-02-23T10:39:11;3.10;;;2.80;;
15699;SDS011;7950;42.744;23.174;2024-02-23T10:41:54;3.77;;;2.80;;
15699;SDS011;7950;42.744;23.174;2024-02-23T10:44:26;4.10;;;3.03;;
15699;SDS011;7950;42.744;23.174;2024-02-23T10:46:57;3.67;;;2.83;;
15699;SDS011;7950;42.744;23.174;2024-02-23T10:49:27;3.37;;;2.87;;
15699;SDS011;7950;42.744;23.174;2024-02-23T10:51:57;3.83;;;2.63;;
15699;SDS011;7950;42.744;23.174;2024-02-23T10:54:28;3.00;;;2.70;;
15699;SDS011;7950;42.744;23.174;2024-02-23T10:57:01;4.47;;;2.60;;
15699;SDS011;7950;42.744;23.174;2024-02-23T10:59:30;3.20;;;2.80;;
15699;SDS011;7950;42.744;23.174;2024-02-23T11:02:00;4.93;;;2.80;;
15699;SDS011;7950;42.744;23.174;2024-02-23T11:04:29;3.00;;;2.70;;
15699;SDS011;7950;42.744;23.174;2024-02-23T11:07:01;3.27;;;2.73;;
15699;SDS011;7950;42.744;23.174;2024-02-23T11:09:34;3.07;;;2.40;;
15699;SDS011;7950;42.744;23.174;2024-02-23T11:12:05;3.40;;;2.83;;
15699;SDS011;7950;42.744;23.174;2024-02-23T11:14:36;5.70;;;2.40;;
15699;SDS011;7950;42.744;23.174;2024-02-23T11:17:06;3.67;;;2.87;;
15699;SDS011;7950;42.744;23.174;2024-02-23T11:19:46;3.60;;;2.77;;
15699;SDS011;7950;42.744;23.174;2024-02-23T11:22:23;4.50;;;2.60;;
15699;SDS011;7950;42.744;23.174;2024-02-23T11:25:04;3.50;;;2.53;;
15699;SDS011;7950;42.744;23.174;2024-02-23T11:27:37;2.73;;;2.40;;
15699;SDS011;7950;42.744;23.174;2024-02-23T11:30:09;3.50;;;2.40;;
15699;SDS011;7950;42.744;23.174;2024-02-23T11:32:39;2.53;;;2.33;;
15699;SDS011;7950;42.744;23.174;2024-02-23T11:35:10;2.70;;;2.33;;
15699;SDS011;7950;42.744;23.174;2024-02-23T11:37:47;2.73;;;2.33;;
15699;SDS011;7950;42.744;23.174;2024-02-23T11:40:18;3.57;;;2.40;;
15699;SDS011;7950;42.744;23.174;2024-02-23T11:42:49;3.97;;;2.70;;
15699;SDS011;7950;42.744;23.174;2024-02-23T11:45:19;2.47;;;2.27;;
15699;SDS011;7950;42.744;23.174;2024-02-23T11:47:48;2.93;;;2.27;;
15699;SDS011;7950;42.744;23.174;2024-02-23T11:50:17;2.67;;;2.47;;
15699;SDS011;7950;42.744;23.174;2024-02-23T11:52:47;3.77;;;2.40;;
15699;SDS011;7950;42.744;23.174;2024-02-23T11:55:18;2.53;;;2.33;;
15699;SDS011;7950;42.744;23.174;2024-02-23T11:57:51;2.37;;;2.17;;
15699;SDS011;7950;42.744;23.174;2024-02-23T12:00:33;2.50;;;2.27;;
15699;SDS011;7950;42.744;23.174;2024-02-23T12:03:02;2.43;;;2.23;;
15699;SDS011;7950;42.744;23.174;2024-02-23T12:05:32;4.23;;;2.43;;
15699;SDS011;7950;42.744;23.174;2024-02-23T12:08:01;3.27;;;2.43;;
15699;SDS011;7950;42.744;23.174;2024-02-23T12:10:31;2.57;;;2.37;;
15699;SDS011;7950;42.744;23.174;2024-02-23T12:13:01;3.17;;;2.30;;
15699;SDS011;7950;42.744;23.174;2024-02-23T12:15:31;2.60;;;2.30;;
15699;SDS011;7950;42.744;23.174;2024-02-23T12:17:59;2.90;;;2.40;;
15699;SDS011;7950;42.744;23.174;2024-02-23T12:20:28;2.50;;;2.30;;
15699;SDS011;7950;42.744;23.174;2024-02-23T12:23:02;2.90;;;2.30;;
15699;SDS011;7950;42.744;23.174;2024-02-23T12:25:33;2.90;;;2.43;;
15699;SDS011;7950;42.744;23.174;2024-02-23T12:28:05;3.77;;;2.50;;
15699;SDS011;7950;42.744;23.174;2024-02-23T12:30:35;4.27;;;2.57;;
15699;SDS011;7950;42.744;23.174;2024-02-23T12:33:04;2.93;;;2.50;;
15699;SDS011;7950;42.744;23.174;2024-02-23T12:35:35;3.77;;;2.10;;
15699;SDS011;7950;42.744;23.174;2024-02-23T12:38:04;2.80;;;2.20;;
15699;SDS011;7950;42.744;23.174;2024-02-23T12:40:33;2.20;;;2.10;;
15699;SDS011;7950;42.744;23.174;2024-02-23T12:43:02;2.60;;;2.40;;
15699;SDS011;7950;42.744;23.174;2024-02-23T12:45:32;3.00;;;2.50;;
15699;SDS011;7950;42.744;23.174;2024-02-23T12:48:01;3.03;;;2.30;;
15699;SDS011;7950;42.744;23.174;2024-02-23T12:50:30;2.33;;;2.13;;
15699;SDS011;7950;42.744;23.174;2024-02-23T12:52:59;3.30;;;2.30;;
15699;SDS011;7950;42.744;23.174;2024-02-23T12:55:28;2.20;;;2.00;;
15699;SDS011;7950;42.744;23.174;2024-02-23T12:57:56;2.80;;;2.37;;
15699;SDS011;7950;42.744;23.174;2024-02-23T13:00:25;2.33;;;2.10;;
15699;SDS011;7950;42.744;23.174;2024-02-23T13:02:55;2.40;;;2.20;;
15699;SDS011;7950;42.744;23.174;2024-02-23T13:05:24;4.33;;;2.20;;
15699;SDS011;7950;42.744;23.174;2024-02-23T13:07:53;2.43;;;2.23;;
15699;SDS011;7950;42.744;23.174;2024-02-23T13:10:22;2.20;;;2.00;;
15699;SDS011;7950;42.744;23.174;2024-02-23T13:12:50;2.30;;;2.00;;
15699;SDS011;7950;42.744;23.174;2024-02-23T13:15:19;2.20;;;2.00;;
15699;SDS011;7950;42.744;23.174;2024-02-23T13:17:52;2.90;;;2.60;;
15699;SDS011;7950;42.744;23.174;2024-02-23T13:20:22;2.70;;;1.83;;
15699;SDS011;7950;42.744;23.174;2024-02-23T13:22:51;3.00;;;2.00;;
15699;SDS011;7950;42.744;23.174;2024-02-23T13:25:20;2.07;;;1.87;;
15699;SDS011;7950;42.744;23.174;2024-02-23T13:27:48;2.20;;;2.00;;
15699;SDS011;7950;42.744;23.174;2024-02-23T13:30:17;2.70;;;1.83;;
15699;SDS011;7950;42.744;23.174;2024-02-23T13:32:46;3.03;;;2.20;;
15699;SDS011;7950;42.744;23.174;2024-02-23T13:35:15;2.60;;;2.40;;
15699;SDS011;7950;42.744;23.174;2024-02-23T13:37:45;3.80;;;2.03;;
15699;SDS011;7950;42.744;23.174;2024-02-23T13:40:14;2.77;;;1.90;;
15699;SDS011;7950;42.744;23.174;2024-02-23T13:42:43;1.90;;;1.77;;
15699;SDS011;7950;42.744;23.174;2024-02-23T13:45:16;2.40;;;2.20;;
15699;SDS011;7950;42.744;23.174;2024-02-23T13:47:55;2.20;;;2.00;;
15699;SDS011;7950;42.744;23.174;2024-02-23T13:50:26;3.03;;;1.80;;
15699;SDS011;7950;42.744;23.174;2024-02-23T13:52:57;2.20;;;1.80;;
15699;SDS011;7950;42.744;23.174;2024-02-23T13:55:27;1.77;;;1.67;;
15699;SDS011;7950;42.744;23.174;2024-02-23T13:57:56;3.33;;;2.20;;
15699;SDS011;7950;42.744;23.174;2024-02-23T14:00:24;3.10;;;1.93;;
15699;SDS011;7950;42.744;23.174;2024-02-23T14:02:53;2.07;;;1.80;;
15699;SDS011;7950;42.744;23.174;2024-02-23T14:05:23;2.07;;;1.87;;
15699;SDS011;7950;42.744;23.174;2024-02-23T14:07:53;3.23;;;2.07;;
15699;SDS011;7950;42.744;23.174;2024-02-23T14:10:23;2.37;;;2.07;;
15699;SDS011;7950;42.744;23.174;2024-02-23T14:12:52;2.30;;;1.97;;
15699;SDS011;7950;42.744;23.174;2024-02-23T14:15:21;5.03;;;2.83;;
15699;SDS011;7950;42.744;23.174;2024-02-23T14:17:50;2.73;;;1.93;;
15699;SDS011;7950;42.744;23.174;2024-02-23T14:20:19;2.73;;;2.10;;
15699;SDS011;7950;42.744;23.174;2024-02-23T14:22:47;1.97;;;1.80;;
15699;SDS011;7950;42.744;23.174;2024-02-23T14:25:19;3.83;;;2.17;;
15699;SDS011;7950;42.744;23.174;2024-02-23T14:27:49;2.20;;;2.00;;
15699;SDS011;7950;42.744;23.174;2024-02-23T14:30:17;2.67;;;2.03;;
15699;SDS011;7950;42.744;23.174;2024-02-23T14:32:47;2.60;;;2.20;;
15699;SDS011;7950;42.744;23.174;2024-02-23T14:35:16;2.53;;;2.07;;
15699;SDS011;7950;42.744;23.174;2024-02-23T14:37:45;4.23;;;2.10;;
15699;SDS011;7950;42.744;23.174;2024-02-23T14:40:14;3.30;;;2.60;;
15699;SDS011;7950;42.744;23.174;2024-02-23T14:42:43;2.73;;;2.13;;
15699;SDS011;7950;42.744;23.174;2024-02-23T14:45:13;3.73;;;2.10;;
15699;SDS011;7950;42.744;23.174;2024-02-23T14:47:43;2.57;;;2.00;;
15699;SDS011;7950;42.744;23.174;2024-02-23T14:50:12;2.77;;;2.57;;
15699;SDS011;7950;42.744;23.174;2024-02-23T14:52:41;2.87;;;2.20;;